Time;durP1;ratioP1;P1;durP2;ratioP2;P2;SDS_P1;SDS_P2;PMS_P1;PMS_P2;Temp;Humidity;BMP_temperature;BMP_pressure;BME280_temperature;BME280_humidity;BME280_pressure;Samples;Min_cycle;Max_cycle;Signal;HPM_P1;HPM_P2
2024/02/20 00:00:23;;;;;;;29.00;8.93;;;;;7.40;102365.00;;;;10002515;29;20233;-81
2024/02/20 00:05:24;;;;;;;24.60;9.70;;;;;7.40;102363.00;;;;10008314;29;20249;-81
2024/02/20 00:10:26;;;;;;;24.00;7.73;;;;;7.30;102366.00;;;;10025773;29;20232;-81
2024/02/20 00:15:27;;;;;;;25.50;9.03;;;;;7.20;102362.00;;;;9992884;29;20312;-82
2024/02/20 00:20:28;;;;;;;28.13;8.40;;;;;7.10;102368.00;;;;10007606;29;20321;-81
2024/02/20 00:25:29;;;;;;;33.57;9.23;;;;;6.90;102371.00;;;;10018174;29;20304;-81
2024/02/20 00:30:30;;;;;;;24.53;8.50;;;;;6.70;102365.00;;;;10008352;29;20670;-80
2024/02/20 00:35:31;;;;;;;21.20;8.87;;;;;6.50;102374.00;;;;9997199;29;20244;-81
2024/02/20 00:40:32;;;;;;;25.10;8.83;;;;;6.40;102382.00;;;;9995109;29;20232;-81
2024/02/20 00:45:33;;;;;;;27.37;8.80;;;;;6.40;102381.00;;;;10007018;29;20269;-81
2024/02/20 00:50:34;;;;;;;28.03;9.63;;;;;6.40;102381.00;;;;10028126;29;20216;-81
2024/02/20 00:55:36;;;;;;;19.20;8.93;;;;;6.40;102388.00;;;;9986773;29;20315;-80
2024/02/20 01:00:37;;;;;;;34.23;11.20;;;;;6.30;102378.00;;;;9993104;29;20225;-81
2024/02/20 01:05:38;;;;;;;22.03;9.43;;;;;6.30;102364.00;;;;10010024;29;20272;-81
2024/02/20 01:10:39;;;;;;;27.60;10.07;;;;;6.20;102376.00;;;;10007856;29;20225;-81
2024/02/20 01:15:40;;;;;;;31.93;10.00;;;;;6.20;102365.00;;;;10017004;29;20229;-81
2024/02/20 01:20:42;;;;;;;36.73;10.90;;;;;6.20;102363.00;;;;10006636;29;20319;-81
2024/02/20 01:25:43;;;;;;;31.07;11.20;;;;;6.20;102367.00;;;;9990428;29;20228;-81
2024/02/20 01:30:44;;;;;;;28.57;10.40;;;;;6.10;102360.00;;;;9985883;29;20649;-80
2024/02/20 01:35:46;;;;;;;30.70;12.40;;;;;6.10;102351.00;;;;9993669;29;20307;-77
2024/02/20 01:40:47;;;;;;;30.83;10.87;;;;;6.10;102348.00;;;;9995121;29;20237;-77
2024/02/20 01:45:48;;;;;;;30.50;11.17;;;;;6.10;102355.00;;;;10006936;29;20274;-78
2024/02/20 01:50:49;;;;;;;33.83;11.30;;;;;6.10;102372.00;;;;10015878;29;20275;-78
2024/02/20 01:55:51;;;;;;;38.03;12.73;;;;;6.20;102373.00;;;;10034655;29;20221;-79
2024/02/20 02:00:52;;;;;;;37.73;12.90;;;;;6.30;102354.00;;;;9996177;29;20242;-78
2024/02/20 02:05:53;;;;;;;32.80;13.07;;;;;6.50;102355.00;;;;10014059;29;20286;-78
2024/02/20 02:10:54;;;;;;;32.23;12.93;;;;;6.60;102360.00;;;;9998098;29;20229;-80
2024/02/20 02:15:56;;;;;;;32.17;13.70;;;;;6.60;102355.00;;;;10018290;29;20736;-78
2024/02/20 02:20:57;;;;;;;27.40;12.67;;;;;6.60;102364.00;;;;10014376;29;20861;-78
2024/02/20 02:25:58;;;;;;;34.50;11.70;;;;;6.60;102359.00;;;;9998421;29;21057;-78
2024/02/20 02:30:59;;;;;;;33.10;13.40;;;;;6.60;102368.00;;;;10033304;29;20720;-79
2024/02/20 02:36:01;;;;;;;31.63;12.30;;;;;6.60;102353.00;;;;10012899;29;20232;-79
2024/02/20 02:41:03;;;;;;;27.97;11.93;;;;;6.50;102348.00;;;;10002802;29;20307;-78
2024/02/20 02:46:04;;;;;;;20.80;10.80;;;;;6.50;102352.00;;;;10001152;29;20233;-77
2024/02/20 02:51:08;;;;;;;33.70;13.23;;;;;6.40;102352.00;;;;10008762;29;20239;-77
2024/02/20 02:56:13;;;;;;;43.80;13.27;;;;;6.40;102341.00;;;;10013769;29;20328;-78
2024/02/20 03:01:14;;;;;;;36.67;14.17;;;;;6.40;102347.00;;;;9999196;29;20233;-77
2024/02/20 03:06:16;;;;;;;37.00;13.73;;;;;6.30;102353.00;;;;10011795;29;20235;-77
2024/02/20 03:11:17;;;;;;;33.63;13.30;;;;;6.20;102341.00;;;;10026538;29;20308;-77
2024/02/20 03:16:18;;;;;;;28.40;13.17;;;;;6.20;102357.00;;;;10009721;29;20233;-77
2024/02/20 03:21:20;;;;;;;36.03;13.10;;;;;6.20;102352.00;;;;9998039;29;20233;-78
2024/02/20 03:26:21;;;;;;;35.10;12.97;;;;;6.30;102363.00;;;;10019249;29;20300;-77
2024/02/20 03:31:23;;;;;;;37.97;12.97;;;;;6.30;102360.00;;;;10008508;29;20257;-77
2024/02/20 03:36:24;;;;;;;42.00;13.60;;;;;6.40;102368.00;;;;10013663;29;20237;-77
2024/02/20 03:41:25;;;;;;;34.23;13.27;;;;;6.40;102357.00;;;;10027723;29;20293;-77
2024/02/20 03:46:26;;;;;;;31.73;12.50;;;;;6.30;102364.00;;;;10002544;29;20252;-77
2024/02/20 03:51:27;;;;;;;30.63;13.03;;;;;6.30;102356.00;;;;10014759;29;20229;-77
2024/02/20 03:56:28;;;;;;;34.77;14.70;;;;;6.30;102357.00;;;;10043403;29;20887;-85
2024/02/20 04:01:30;;;;;;;34.47;13.13;;;;;6.20;102353.00;;;;10046544;29;20241;-85
2024/02/20 04:06:34;;;;;;;27.73;13.03;;;;;6.20;102349.00;;;;10016743;29;20228;-85
2024/02/20 04:11:35;;;;;;;29.07;12.57;;;;;6.00;102340.00;;;;10020810;29;20266;-86
2024/02/20 04:16:36;;;;;;;37.43;13.47;;;;;6.00;102333.00;;;;10057351;29;20240;-85
2024/02/20 04:21:37;;;;;;;29.23;12.93;;;;;5.90;102344.00;;;;10039711;29;20209;-85
2024/02/20 04:26:38;;;;;;;37.40;13.17;;;;;5.90;102332.00;;;;10063815;29;20237;-84
2024/02/20 04:31:40;;;;;;;39.70;12.50;;;;;5.90;102333.00;;;;10092304;24;20296;-91
2024/02/20 04:36:42;;;;;;;40.83;13.17;;;;;5.90;102346.00;;;;10009330;29;20308;-90
2024/02/20 04:41:44;;;;;;;41.23;12.87;;;;;6.00;102330.00;;;;10001453;29;20229;-91
2024/02/20 04:46:46;;;;;;;33.73;12.80;;;;;6.00;102341.00;;;;10015200;29;20240;-91
2024/02/20 04:51:47;;;;;;;34.83;12.50;;;;;6.00;102334.00;;;;10023901;24;20229;-85
2024/02/20 04:56:48;;;;;;;35.07;12.37;;;;;6.00;102337.00;;;;10026326;29;20257;-85
2024/02/20 05:01:50;;;;;;;32.40;12.00;;;;;6.00;102341.00;;;;10007840;29;20238;-85
2024/02/20 05:06:51;;;;;;;31.03;12.73;;;;;6.00;102332.00;;;;9984814;29;20234;-80
2024/02/20 05:11:52;;;;;;;28.97;11.77;;;;;6.00;102333.00;;;;9982495;29;20237;-79
2024/02/20 05:16:53;;;;;;;33.93;12.70;;;;;6.00;102332.00;;;;9955932;29;20245;-79
2024/02/20 05:21:55;;;;;;;33.40;12.70;;;;;6.00;102327.00;;;;9953041;29;20232;-80
2024/02/20 05:26:56;;;;;;;34.70;13.37;;;;;6.00;102329.00;;;;9956477;29;20234;-79
2024/02/20 05:31:58;;;;;;;30.70;11.63;;;;;6.00;102328.00;;;;9975593;29;20229;-80
2024/02/20 05:36:59;;;;;;;45.07;12.33;;;;;6.00;102317.00;;;;9968683;29;20256;-80
2024/02/20 05:42:01;;;;;;;37.30;13.10;;;;;6.10;102321.00;;;;9970572;29;20225;-80
2024/02/20 05:47:02;;;;;;;37.60;12.37;;;;;6.10;102326.00;;;;9973910;29;20229;-80
2024/02/20 05:52:04;;;;;;;33.97;12.90;;;;;6.10;102330.00;;;;9978587;29;20238;-79
2024/02/20 05:57:05;;;;;;;34.63;12.77;;;;;6.10;102333.00;;;;9958365;29;20229;-79
2024/02/20 06:02:06;;;;;;;49.53;12.93;;;;;6.10;102347.00;;;;9989863;29;20228;-80
2024/02/20 06:07:07;;;;;;;40.00;12.63;;;;;6.00;102341.00;;;;9972862;29;20233;-80
2024/02/20 06:12:10;;;;;;;34.13;12.33;;;;;6.00;102342.00;;;;9973662;29;20226;-80
2024/02/20 06:17:11;;;;;;;34.50;12.23;;;;;5.90;102340.00;;;;9962915;29;20225;-80
2024/02/20 06:22:12;;;;;;;37.23;12.60;;;;;5.90;102340.00;;;;9963364;29;20937;-81
2024/02/20 06:27:13;;;;;;;32.67;12.53;;;;;5.80;102344.00;;;;9978900;29;20232;-81
2024/02/20 06:32:14;;;;;;;40.40;13.77;;;;;5.80;102331.00;;;;9977208;29;20225;-81
2024/02/20 06:37:15;;;;;;;30.00;13.13;;;;;5.70;102340.00;;;;9988742;29;20256;-80
2024/02/20 06:42:17;;;;;;;36.83;12.43;;;;;5.70;102346.00;;;;9997203;29;20236;-81
2024/02/20 06:47:18;;;;;;;34.23;13.97;;;;;5.60;102346.00;;;;9966295;29;20237;-81
2024/02/20 06:52:19;;;;;;;33.83;12.80;;;;;5.60;102342.00;;;;9952764;29;20316;-80
2024/02/20 06:57:20;;;;;;;45.13;13.57;;;;;5.60;102343.00;;;;9970646;29;20803;-81
2024/02/20 07:02:21;;;;;;;35.20;12.77;;;;;5.60;102342.00;;;;9984037;29;20244;-81
2024/02/20 07:07:23;;;;;;;32.07;13.07;;;;;5.60;102346.00;;;;9979382;29;20265;-81
2024/02/20 07:12:24;;;;;;;42.40;15.73;;;;;5.70;102338.00;;;;9989378;29;20225;-80
2024/02/20 07:17:26;;;;;;;44.33;14.27;;;;;5.80;102332.00;;;;9957528;29;20324;-81
2024/02/20 07:22:30;;;;;;;44.43;15.30;;;;;5.90;102340.00;;;;9975914;29;20225;-81
2024/02/20 07:27:32;;;;;;;42.47;15.93;;;;;6.10;102343.00;;;;9993760;29;20226;-79
2024/02/20 07:32:33;;;;;;;35.63;15.20;;;;;6.30;102336.00;;;;9964863;29;20249;-76
2024/02/20 07:37:35;;;;;;;40.77;16.80;;;;;6.40;102341.00;;;;9971982;29;20320;-76
2024/02/20 07:42:39;;;;;;;47.50;17.83;;;;;6.60;102343.00;;;;9957173;29;20230;-76
2024/02/20 07:47:40;;;;;;;44.87;17.73;;;;;6.80;102347.00;;;;9965713;29;20226;-78
2024/02/20 07:52:41;;;;;;;47.90;17.07;;;;;7.00;102343.00;;;;10001020;29;20645;-76
2024/02/20 07:57:43;;;;;;;37.77;15.67;;;;;7.20;102339.00;;;;9969316;29;20225;-76
2024/02/20 08:02:44;;;;;;;42.73;18.17;;;;;7.30;102343.00;;;;10016375;29;20277;-77
2024/02/20 08:07:45;;;;;;;41.60;15.80;;;;;7.60;102356.00;;;;9962529;29;20229;-76
2024/02/20 08:12:48;;;;;;;38.40;15.73;;;;;7.80;102355.00;;;;9996419;29;20225;-76
2024/02/20 08:17:50;;;;;;;40.90;14.97;;;;;7.90;102356.00;;;;9957260;29;20234;-76
2024/02/20 08:22:51;;;;;;;37.50;15.57;;;;;8.10;102360.00;;;;9959520;29;20750;-77
2024/02/20 08:27:52;;;;;;;33.47;16.20;;;;;8.20;102357.00;;;;9978878;29;20271;-76
2024/02/20 08:32:53;;;;;;;34.10;14.03;;;;;8.40;102368.00;;;;9986242;29;20260;-78
2024/02/20 08:37:56;;;;;;;33.17;14.63;;;;;8.70;102389.00;;;;9954217;29;20273;-77
2024/02/20 08:42:57;;;;;;;34.57;12.47;;;;;8.90;102374.00;;;;9952546;29;20313;-76
2024/02/20 08:48:01;;;;;;;28.20;13.13;;;;;9.00;102361.00;;;;9983931;29;20318;-77
2024/02/20 08:53:07;;;;;;;31.37;12.50;;;;;9.10;102370.00;;;;9983883;29;20772;-77
2024/02/20 08:58:08;;;;;;;26.90;11.77;;;;;9.20;102361.00;;;;9972025;29;20605;-81
2024/02/20 09:03:10;;;;;;;26.93;11.03;;;;;9.40;102357.00;;;;9967344;29;20218;-77
2024/02/20 09:08:11;;;;;;;27.60;10.80;;;;;9.50;102358.00;;;;9949924;29;20226;-76
2024/02/20 09:13:13;;;;;;;37.20;10.57;;;;;9.50;102358.00;;;;9960425;29;20233;-77
2024/02/20 09:18:14;;;;;;;26.90;10.20;;;;;9.90;102349.00;;;;9944380;29;20225;-76
2024/02/20 09:23:15;;;;;;;26.77;11.20;;;;;10.60;102350.00;;;;9958678;29;20308;-78
2024/02/20 09:28:16;;;;;;;29.40;9.20;;;;;11.00;102351.00;;;;9957980;29;20233;-76
2024/02/20 09:33:18;;;;;;;24.63;8.00;;;;;11.10;102354.00;;;;9956656;29;20264;-77
2024/02/20 09:38:20;;;;;;;25.57;8.67;;;;;10.90;102347.00;;;;9988241;29;20229;-77
2024/02/20 09:43:21;;;;;;;23.27;8.87;;;;;11.00;102340.00;;;;9975617;29;20277;-79
2024/02/20 09:48:23;;;;;;;21.17;7.70;;;;;11.00;102340.00;;;;9956832;29;20225;-81
2024/02/20 09:53:25;;;;;;;28.30;8.70;;;;;11.20;102356.00;;;;9951990;29;20221;-81
2024/02/20 09:58:26;;;;;;;21.63;7.80;;;;;11.40;102347.00;;;;9965794;29;20303;-81
2024/02/20 10:03:34;;;;;;;19.53;7.83;;;;;11.70;102335.00;;;;9974884;29;20226;-82
2024/02/20 10:08:35;;;;;;;23.23;7.57;;;;;11.80;102338.00;;;;9964205;29;20757;-80
2024/02/20 10:13:43;;;;;;;25.98;7.97;;;;;12.00;102331.00;;;;9977831;29;20312;-78
2024/02/20 10:19:07;;;;;;;20.08;7.55;;;;;12.50;102336.00;;;;9989581;29;20244;-81
2024/02/20 10:24:09;;;;;;;26.23;6.97;;;;;13.30;102336.00;;;;9962272;29;20951;-80
2024/02/20 10:29:21;;;;;;;15.07;6.38;;;;;13.80;102338.00;;;;9979271;29;20226;-81
2024/02/20 10:34:22;;;;;;;23.23;6.82;;;;;14.10;102340.00;;;;9969050;29;21053;-81
2024/02/20 10:39:24;;;;;;;24.10;6.47;;;;;14.10;102329.00;;;;9971379;29;20236;-80
2024/02/20 10:44:27;;;;;;;20.00;6.13;;;;;13.60;102335.00;;;;9977521;29;20213;-80
2024/02/20 10:49:30;;;;;;;21.02;5.78;;;;;13.80;102328.00;;;;9979516;29;20226;-81
2024/02/20 10:54:35;;;;;;;20.98;5.93;;;;;14.20;102314.00;;;;9983580;29;20241;-79
2024/02/20 10:59:51;;;;;;;16.08;4.90;;;;;14.70;102298.00;;;;9946052;29;20528;-80
2024/02/20 11:04:53;;;;;;;22.83;5.80;;;;;14.90;102295.00;;;;9960026;29;20661;-79
2024/02/20 11:10:14;;;;;;;23.45;6.40;;;;;15.10;102286.00;;;;9952114;29;20968;-79
2024/02/20 11:15:20;;;;;;;19.38;5.97;;;;;14.60;102290.00;;;;9988021;29;20228;-76
2024/02/20 11:20:23;;;;;;;24.85;6.20;;;;;14.30;102298.00;;;;9976834;29;20237;-79
2024/02/20 11:25:30;;;;;;;19.75;5.10;;;;;14.00;102279.00;;;;9989701;29;20229;-79
2024/02/20 11:30:31;;;;;;;20.25;5.32;;;;;13.80;102289.00;;;;9990870;29;20226;-79
2024/02/20 11:35:33;;;;;;;19.48;6.63;;;;;13.50;102304.00;;;;9997236;29;20917;-78
2024/02/20 11:40:38;;;;;;;22.48;6.32;;;;;13.70;102302.00;;;;9939757;29;20230;-78
2024/02/20 11:45:40;;;;;;;19.13;6.05;;;;;14.20;102299.00;;;;9955582;29;20222;-79
2024/02/20 11:50:43;;;;;;;16.45;6.80;;;;;14.50;102280.00;;;;9979306;29;20304;-79
2024/02/20 11:55:54;;;;;;;23.13;6.72;;;;;13.70;102312.00;;;;9966657;29;20592;-79
2024/02/20 12:01:02;;;;;;;18.15;7.25;;;;;13.60;102307.00;;;;9990823;29;20268;-79
2024/02/20 12:06:07;;;;;;;21.27;7.97;;;;;13.20;102305.00;;;;9960364;29;20232;-86
2024/02/20 12:11:16;;;;;;;22.60;8.32;;;;;12.90;102309.00;;;;9985276;29;20237;-85
2024/02/20 12:16:19;;;;;;;22.95;9.77;;;;;12.70;102314.00;;;;9983066;29;20237;-84
2024/02/20 12:21:27;;;;;;;19.85;10.57;;;;;12.40;102301.00;;;;9988791;29;20637;-85
2024/02/20 12:26:28;;;;;;;19.35;10.77;;;;;12.30;102280.00;;;;9981745;29;20630;-85
2024/02/20 12:31:32;;;;;;;30.02;13.20;;;;;12.20;102285.00;;;;10000924;29;20221;-84
2024/02/20 12:36:33;;;;;;;22.70;12.50;;;;;12.00;102281.00;;;;9988374;29;20233;-84
2024/02/20 12:41:35;;;;;;;24.13;11.82;;;;;11.80;102275.00;;;;9964422;29;20268;-85
2024/02/20 12:46:40;;;;;;;27.20;11.73;;;;;11.80;102258.00;;;;9980806;29;20312;-85
2024/02/20 12:51:41;;;;;;;23.50;10.67;;;;;11.90;102260.00;;;;9987223;29;20236;-85
2024/02/20 12:56:43;;;;;;;27.10;9.80;;;;;11.90;102245.00;;;;9959392;29;20237;-85
2024/02/20 13:01:44;;;;;;;24.77;9.47;;;;;11.90;102236.00;;;;9956211;29;20221;-85
2024/02/20 13:06:45;;;;;;;27.07;10.27;;;;;11.80;102232.00;;;;9971459;29;20734;-84
2024/02/20 13:11:46;;;;;;;29.47;12.20;;;;;11.60;102230.00;;;;9985126;29;20237;-85
2024/02/20 13:16:48;;;;;;;29.17;10.87;;;;;11.40;102231.00;;;;9972581;29;20273;-87
2024/02/20 13:21:49;;;;;;;28.33;10.03;;;;;11.10;102209.00;;;;9979541;29;20225;-84
2024/02/20 13:26:53;;;;;;;30.30;9.50;;;;;10.90;102206.00;;;;9984728;29;20230;-85
2024/02/20 13:31:54;;;;;;;25.20;9.70;;;;;10.70;102205.00;;;;9968988;29;20236;-85
2024/02/20 13:36:59;;;;;;;26.47;10.00;;;;;10.50;102186.00;;;;9976419;29;20258;-83
2024/02/20 13:42:01;;;;;;;18.53;7.23;;;;;10.30;102174.00;;;;9944416;29;20677;-80
2024/02/20 13:47:02;;;;;;;25.57;9.53;;;;;10.10;102176.00;;;;9983006;29;20838;-83
2024/02/20 13:52:17;;;;;;;19.23;6.50;;;;;10.30;102142.00;;;;9986127;29;20907;-85
2024/02/20 13:57:20;;;;;;;14.90;6.33;;;;;10.50;102131.00;;;;10001883;29;20233;-85
2024/02/20 14:02:21;;;;;;;18.90;8.43;;;;;10.70;102107.00;;;;9962031;29;20264;-85
2024/02/20 14:07:23;;;;;;;18.33;8.57;;;;;10.70;102108.00;;;;9989234;29;20286;-86
2024/02/20 14:12:25;;;;;;;20.53;8.37;;;;;10.80;102106.00;;;;9959800;29;20331;-86
2024/02/20 14:17:26;;;;;;;24.53;7.73;;;;;10.80;102120.00;;;;9977548;29;20221;-85
2024/02/20 14:22:27;;;;;;;17.87;6.97;;;;;10.80;102117.00;;;;9954337;29;20241;-86
2024/02/20 14:27:29;;;;;;;19.47;8.17;;;;;10.80;102116.00;;;;9961622;29;20233;-80
2024/02/20 14:32:30;;;;;;;16.13;5.97;;;;;10.70;102111.00;;;;9979844;29;20233;-77
2024/02/20 14:37:31;;;;;;;23.37;8.10;;;;;10.50;102130.00;;;;9995517;29;20233;-79
2024/02/20 14:42:33;;;;;;;19.13;8.23;;;;;10.40;102130.00;;;;9950450;29;20335;-77
2024/02/20 14:47:34;;;;;;;20.97;8.40;;;;;10.40;102115.00;;;;9954933;29;20297;-78
2024/02/20 14:52:35;;;;;;;19.57;8.50;;;;;10.40;102111.00;;;;9959401;29;20237;-79
2024/02/20 14:57:39;;;;;;;15.13;7.63;;;;;10.50;102098.00;;;;9995858;29;20741;-77
2024/02/20 15:02:40;;;;;;;26.20;8.13;;;;;10.50;102098.00;;;;9981346;29;20257;-77
2024/02/20 15:07:41;;;;;;;15.60;7.43;;;;;10.40;102104.00;;;;9950026;29;20324;-77
2024/02/20 15:12:44;;;;;;;18.07;7.90;;;;;10.20;102101.00;;;;9960775;29;20309;-78
2024/02/20 15:17:45;;;;;;;23.23;8.50;;;;;10.10;102098.00;;;;9998190;29;20238;-78
2024/02/20 15:22:46;;;;;;;17.03;8.47;;;;;10.00;102101.00;;;;9992497;29;20226;-76
2024/02/20 15:27:48;;;;;;;22.63;8.87;;;;;9.90;102105.00;;;;9966209;29;20261;-77
2024/02/20 15:32:49;;;;;;;17.57;8.77;;;;;9.90;102099.00;;;;9971304;29;20229;-77
2024/02/20 15:37:51;;;;;;;21.67;8.90;;;;;9.70;102087.00;;;;9979227;29;20232;-77
2024/02/20 15:42:54;;;;;;;25.30;10.47;;;;;9.60;102069.00;;;;9999768;29;20583;-77
2024/02/20 15:47:56;;;;;;;23.70;10.47;;;;;9.50;102065.00;;;;9983332;29;20264;-77
2024/02/20 15:52:58;;;;;;;23.53;9.87;;;;;9.50;102073.00;;;;9952893;29;20700;-77
2024/02/20 15:58:08;;;;;;;28.73;12.30;;;;;9.60;102042.00;;;;9962992;29;20282;-77
2024/02/20 16:03:09;;;;;;;24.43;10.20;;;;;9.60;102035.00;;;;9997703;29;20232;-76
2024/02/20 16:08:14;;;;;;;25.80;12.83;;;;;9.60;102011.00;;;;9959211;29;20241;-75
2024/02/20 16:13:15;;;;;;;27.73;12.00;;;;;9.50;102000.00;;;;9986631;29;20226;-75
2024/02/20 16:18:17;;;;;;;29.63;12.93;;;;;9.40;102001.00;;;;9970080;29;20923;-75
2024/02/20 16:23:18;;;;;;;28.93;11.67;;;;;9.20;102007.00;;;;9961754;29;20222;-77
2024/02/20 16:28:22;;;;;;;30.87;13.97;;;;;9.10;102005.00;;;;9958068;29;20225;-76
2024/02/20 16:33:23;;;;;;;35.97;14.37;;;;;9.10;102003.00;;;;9991894;29;20235;-76
2024/02/20 16:38:26;;;;;;;29.93;14.00;;;;;9.00;101989.00;;;;9978214;29;20239;-78
2024/02/20 16:43:29;;;;;;;33.30;13.87;;;;;9.00;102009.00;;;;9967852;29;20228;-75
2024/02/20 16:48:31;;;;;;;36.27;14.07;;;;;8.80;102011.00;;;;9947591;29;20225;-78
2024/02/20 16:53:32;;;;;;;37.80;14.80;;;;;8.70;102009.00;;;;9965029;29;20249;-76
2024/02/20 16:58:34;;;;;;;33.63;15.40;;;;;8.60;101995.00;;;;9973108;29;20237;-76
2024/02/20 17:03:36;;;;;;;34.23;14.70;;;;;8.50;101994.00;;;;9980924;29;20857;-77
2024/02/20 17:08:37;;;;;;;34.53;16.00;;;;;8.40;102008.00;;;;9986121;29;20233;-75
2024/02/20 17:13:39;;;;;;;37.20;15.63;;;;;8.40;101998.00;;;;9963050;29;20891;-75
2024/02/20 17:18:40;;;;;;;34.00;14.43;;;;;8.30;102004.00;;;;9966598;29;20233;-76
2024/02/20 17:23:41;;;;;;;31.43;15.07;;;;;8.30;102011.00;;;;9960765;29;20680;-76
2024/02/20 17:28:42;;;;;;;34.13;15.37;;;;;8.30;102032.00;;;;9969728;29;20291;-76
2024/02/20 17:33:43;;;;;;;36.17;14.67;;;;;8.30;102027.00;;;;9973742;29;20878;-77
2024/02/20 17:38:45;;;;;;;33.60;13.90;;;;;8.40;102024.00;;;;9950262;29;20775;-77
2024/02/20 17:43:48;;;;;;;36.80;14.07;;;;;8.40;102022.00;;;;9962390;29;20278;-76
2024/02/20 17:48:54;;;;;;;38.13;13.70;;;;;8.40;102024.00;;;;9977167;29;20671;-76
2024/02/20 17:53:55;;;;;;;31.23;14.23;;;;;8.40;102022.00;;;;9970783;29;20690;-75
2024/02/20 17:58:56;;;;;;;32.00;13.10;;;;;8.50;102043.00;;;;9956961;29;20230;-81
2024/02/20 18:04:01;;;;;;;33.00;13.23;;;;;8.50;102025.00;;;;9992272;29;20234;-81
2024/02/20 18:09:03;;;;;;;25.77;12.63;;;;;8.60;102027.00;;;;9963229;29;20275;-80
2024/02/20 18:14:05;;;;;;;29.93;12.10;;;;;8.60;102020.00;;;;9965736;29;20240;-81
2024/02/20 18:19:07;;;;;;;35.03;11.93;;;;;8.70;102004.00;;;;9970808;29;20222;-80
2024/02/20 18:24:08;;;;;;;30.30;12.17;;;;;8.70;102006.00;;;;9966430;29;20316;-81
2024/02/20 18:29:10;;;;;;;21.40;10.03;;;;;8.70;102006.00;;;;10015307;29;20319;-81
2024/02/20 18:34:12;;;;;;;28.87;10.87;;;;;8.70;102008.00;;;;9973770;29;20309;-80
2024/02/20 18:39:13;;;;;;;21.87;10.53;;;;;8.70;102012.00;;;;9958839;29;20233;-80
2024/02/20 18:44:14;;;;;;;24.70;11.13;;;;;8.70;102018.00;;;;9961810;29;20600;-81
2024/02/20 18:49:15;;;;;;;41.67;11.90;;;;;8.70;102010.00;;;;9983083;29;20221;-81
2024/02/20 18:54:16;;;;;;;23.93;9.53;;;;;8.70;101998.00;;;;10002006;29;20330;-81
2024/02/20 18:59:19;;;;;;;22.67;9.43;;;;;8.70;101981.00;;;;9969618;29;20241;-81
2024/02/20 19:04:20;;;;;;;17.13;9.10;;;;;8.60;101980.00;;;;9969334;29;20235;-81
2024/02/20 19:09:22;;;;;;;23.23;10.73;;;;;8.70;101996.00;;;;9985447;29;20389;-80
2024/02/20 19:14:24;;;;;;;26.73;9.60;;;;;8.70;101985.00;;;;9996492;29;20945;-80
2024/02/20 19:19:25;;;;;;;24.73;8.63;;;;;8.70;101981.00;;;;9968857;29;20252;-81
2024/02/20 19:24:26;;;;;;;20.27;8.97;;;;;8.70;101989.00;;;;9972614;29;20224;-81
2024/02/20 19:29:28;;;;;;;21.80;9.10;;;;;8.70;102006.00;;;;9967997;29;20696;-81
2024/02/20 19:34:29;;;;;;;20.17;8.47;;;;;8.70;102001.00;;;;9981583;29;20256;-80
2024/02/20 19:39:31;;;;;;;22.87;9.17;;;;;8.80;102003.00;;;;9980738;29;20318;-80
2024/02/20 19:44:32;;;;;;;25.30;8.27;;;;;8.90;102006.00;;;;9977617;29;20225;-80
2024/02/20 19:49:34;;;;;;;20.97;7.87;;;;;8.90;101998.00;;;;9989922;29;20257;-82
2024/02/20 19:54:35;;;;;;;20.67;8.20;;;;;8.90;101996.00;;;;9965701;29;20240;-81
2024/02/20 19:59:36;;;;;;;20.43;8.50;;;;;8.90;101990.00;;;;9992582;29;20233;-80
2024/02/20 20:04:37;;;;;;;21.47;7.83;;;;;8.90;101987.00;;;;9960177;29;20578;-80
2024/02/20 20:09:38;;;;;;;19.47;8.43;;;;;8.90;101980.00;;;;9972211;29;20237;-80
2024/02/20 20:14:44;;;;;;;18.87;7.67;;;;;8.90;101967.00;;;;9974046;29;20241;-81
2024/02/20 20:19:46;;;;;;;21.47;8.83;;;;;8.90;101962.00;;;;9974341;29;20237;-81
2024/02/20 20:24:47;;;;;;;24.90;10.10;;;;;8.90;101943.00;;;;9956929;29;20258;-78
2024/02/20 20:29:49;;;;;;;21.53;8.50;;;;;8.90;101931.00;;;;9968868;29;20535;-80
2024/02/20 20:34:50;;;;;;;22.20;7.23;;;;;9.00;101925.00;;;;9984414;29;20237;-81
2024/02/20 20:39:54;;;;;;;18.57;7.17;;;;;9.00;101937.00;;;;9968485;29;20237;-81
2024/02/20 20:44:56;;;;;;;22.83;8.93;;;;;9.00;101930.00;;;;9975058;29;20240;-82
2024/02/20 20:49:57;;;;;;;19.80;6.53;;;;;9.00;101932.00;;;;9970288;29;20930;-80
2024/02/20 20:54:59;;;;;;;19.23;7.50;;;;;9.00;101927.00;;;;9963981;29;20233;-82
2024/02/20 21:00:01;;;;;;;27.70;8.53;;;;;9.00;101936.00;;;;9960051;29;20382;-80
2024/02/20 21:05:02;;;;;;;18.60;7.33;;;;;9.00;101934.00;;;;9980295;29;20264;-81
2024/02/20 21:10:05;;;;;;;22.40;8.63;;;;;9.00;101932.00;;;;9964687;29;20759;-81
2024/02/20 21:15:12;;;;;;;32.60;8.20;;;;;9.00;101933.00;;;;9987482;29;20221;-81
2024/02/20 21:20:13;;;;;;;19.93;7.83;;;;;9.00;101937.00;;;;9971893;29;20248;-80
2024/02/20 21:25:14;;;;;;;21.67;7.93;;;;;9.00;101932.00;;;;9978649;29;20218;-81
2024/02/20 21:30:15;;;;;;;17.37;7.80;;;;;9.10;101939.00;;;;9978982;29;20281;-81
2024/02/20 21:35:17;;;;;;;16.73;7.57;;;;;9.10;101939.00;;;;9969238;29;20236;-78
2024/02/20 21:40:18;;;;;;;21.00;7.77;;;;;9.10;101930.00;;;;9968307;29;20305;-78
2024/02/20 21:45:19;;;;;;;20.20;8.37;;;;;9.10;101939.00;;;;9976828;29;20241;-79
2024/02/20 21:50:20;;;;;;;20.93;7.43;;;;;9.20;101930.00;;;;9973338;29;20244;-78
2024/02/20 21:55:21;;;;;;;27.67;7.87;;;;;9.20;101923.00;;;;9966721;29;20676;-79
2024/02/20 22:00:23;;;;;;;26.77;9.37;;;;;9.20;101908.00;;;;9974115;29;20386;-78
2024/02/20 22:05:24;;;;;;;26.03;8.10;;;;;9.10;101913.00;;;;9990038;29;20245;-78
2024/02/20 22:10:25;;;;;;;24.43;8.60;;;;;9.10;101914.00;;;;9960410;29;20232;-78
2024/02/20 22:15:26;;;;;;;20.77;8.27;;;;;9.20;101923.00;;;;9982494;29;20255;-78
2024/02/20 22:20:27;;;;;;;20.00;7.63;;;;;9.10;101907.00;;;;9964801;29;20236;-78
2024/02/20 22:25:29;;;;;;;26.03;8.30;;;;;9.20;101895.00;;;;9954802;29;20362;-77
2024/02/20 22:30:30;;;;;;;21.73;7.67;;;;;9.10;101883.00;;;;9996115;29;20580;-78
2024/02/20 22:35:31;;;;;;;22.57;8.00;;;;;9.00;101884.00;;;;9981045;29;20253;-77
2024/02/20 22:40:32;;;;;;;21.33;7.90;;;;;8.80;101862.00;;;;9984379;29;20248;-77
2024/02/20 22:45:33;;;;;;;20.93;7.27;;;;;8.70;101858.00;;;;9996853;29;20960;-81
2024/02/20 22:50:34;;;;;;;21.80;8.23;;;;;8.60;101856.00;;;;9998383;29;20233;-80
2024/02/20 22:55:36;;;;;;;21.83;8.77;;;;;8.50;101857.00;;;;9975867;29;20229;-81
2024/02/20 23:00:37;;;;;;;28.40;8.50;;;;;8.60;101857.00;;;;9993572;29;20239;-80
2024/02/20 23:05:38;;;;;;;18.77;8.17;;;;;8.60;101851.00;;;;9985964;29;20282;-80
2024/02/20 23:10:39;;;;;;;18.40;9.03;;;;;8.70;101849.00;;;;9994169;29;20229;-80
2024/02/20 23:15:41;;;;;;;20.97;8.43;;;;;8.80;101839.00;;;;9964735;29;20226;-80
2024/02/20 23:20:42;;;;;;;23.23;8.87;;;;;8.80;101841.00;;;;9983500;29;20961;-80
2024/02/20 23:25:43;;;;;;;23.23;9.10;;;;;8.80;101827.00;;;;9976863;29;20230;-80
2024/02/20 23:30:44;;;;;;;23.50;8.80;;;;;8.80;101830.00;;;;9986545;29;20229;-81
2024/02/20 23:35:45;;;;;;;18.00;8.80;;;;;8.90;101840.00;;;;10006825;29;20221;-80
2024/02/20 23:40:46;;;;;;;21.93;9.43;;;;;8.90;101826.00;;;;9964037;29;20234;-80
2024/02/20 23:45:48;;;;;;;24.07;8.80;;;;;8.90;101828.00;;;;9965754;29;20230;-80
2024/02/20 23:50:49;;;;;;;22.90;8.80;;;;;8.90;101809.00;;;;9963726;29;20240;-81
2024/02/20 23:55:50;;;;;;;19.57;8.13;;;;;8.90;101803.00;;;;9974992;29;20333;-81
